Terminal Aerodrome Forecast
Issued by NWS Topeka, KS

Home | Current Version | Previous Version | Graphics & Text | Print | Product List | Glossary On
Versions: 1 2 3 4 5 6 7 8 9 10 11 12 13 14 15 16 17 18 19 20 21 22 23 24 25 26
000
FTUS43 KTOP 231300 AAA
TAFTOP
TAF AMD
KTOP 231359Z 2314/2412 17007KT 5SM -DZ BR OVC012
     FM231700 28010KT 3SM -SHRA BR VCTS BKN007 OVC015CB
     FM232100 32019G27KT 5SM -RASN BR OVC020
     FM240600 31016G23KT P6SM BKN040=

USA.gov is the U.S. government's official web portal to all federal, state and local government web resources and services.